Terminal Aerodrome Forecast
Issued by NWS

Home | Current Version | Previous Version | Text Only | Print | Product List | Glossary Off
Versions: 1 2 3 4 5 6 7 8 9 10 11 12 13 14 15 16 17 18 19 20 21 22 23

000
FTUS43 KFGF 172300
TAFBJI
TAF
KBJI 172320Z 1800/1824 05006KT P6SM SKC
     FM180900 12006KT P6SM SKC
     FM181500 15014KT P6SM SCT250=

USA.gov is the U.S. government's official web portal to all federal, state and local government web resources and services.